Lake Luzerne, NY

2:39 PM EST on January 27, 2015 (GMT -0500)
Ron Fish Jr | Change Station
CLOSE
Current Station
Personal Weather Station
Location: Lake Luzerne, NY
Elevation: 709 ft
Nearby Weather Stations

Elev 709 ft 43.35 °N, 73.83 °W | Updated 1 second ago

Snow
Snow
11.3 °F
Feels Like 11 °F
N
0.0
Wind Variable Wind from North
Gusts 0.0 mph

Today
High -- | Low -- °F
--% Chance of Precip.
Yesterday
High -- | Low -- °F
Precip. -- in
7:16 AM 5:00 PM
First Quarter, 57% visible
Pressure 29.83 in
Visibility 3.0 miles
Clouds Mostly Cloudy 2700 ft
Overcast 3800 ft
Windchill 11 °F
Dew Point -9 °F
Humidity 39%
Rainfall 0.00 in
Snow Depth Not available.
UV 0 out of 12
Pollen .10 out of 12
Air Quality Not available.
Flu Activity Not available.
SPECI KGFL 271934Z AUTO 04009KT 3SM -SN BKN027 OVC038 M12/M15 A2983 RMK AO2 P0000 T11171150

More Conditions Fewer Conditions

Pressure 29.83 in
Visibility 3.0 miles
Clouds Mostly Cloudy 2700 ft
Overcast 3800 ft
Windchill 11 °F
Dew Point -9 °F
Humidity 39%
Rainfall 0.00 in
Snow Depth Not available.
UV 0 out of 12
Pollen .10 out of 12
Air Quality Not available.
Flu Activity Not available.
SPECI KGFL 271934Z AUTO 04009KT 3SM -SN BKN027 OVC038 M12/M15 A2983 RMK AO2 P0000 T11171150

More Conditions Fewer Conditions

10-Day Weather Forecast

Almanac

Astronomy

Jan. 27, 2015 Rise Set
Actual Time
Civil Twilight
Nautical Twilight
Astronomical Twilight
Moon
Length of Visible Light
Length of Day
Tomorrow will be .
, % of the Moon is Illuminated

Today's Extremes

State Highs State Lows

Community

WunderPhotos

Upload Photos

1,790,829 photos uploaded!

WunderBlogs® & News

Nearby

Air Quality

  Air Quality AQ Index Pollutant
Not available.

Snow Depth

Station Depth Elevation

Earthquake Activity

City Distance Mag. Time & Date
Minimum magnitude displayed is 2.5.

Coastal Water Temperatures

Place Temperature

Nearby Weather Stations